Lower Sugarloaf Key, Florida
Current Conditions -  °F | °C
As of 12:53 AM on Saturday 20 Dec 2014 (Local Time) from KNQX Reporting Station
Clear Clear  
Wind Chill: 69°   Ceiling: Unl
Heat Index: 69°   Visibility: 10mi
Dew Point: 64°   Wind: 6mph
Humidity: 84%   Direction: 70°ENE
Pressure: 30.03"   Gusts: NA
Location:  24.6465°N, 81.5399°W
Report Text: KNQX 200553Z AUTO 07005KT 10SM CLR 21/18 A3003 RMK AO2 SLP169 T02060178 10211 20200 58009
Loading
Personal Weather Stations






























Interactive Weather Map New forecast layout! Learn more

10-Day Weather Forecast

Advertisements
Track Severe Weather on mobile